createdAt,value
2022-08-29T00:00:21.991Z,0.00
2022-08-29T00:01:21.979Z,0.00
2022-08-29T00:02:22.085Z,0.00
2022-08-29T00:03:21.979Z,0.00
2022-08-29T00:04:22.036Z,0.00
2022-08-29T00:05:25.024Z,0.00
2022-08-29T00:06:21.926Z,0.00
2022-08-29T00:07:21.915Z,0.00
2022-08-29T00:08:21.903Z,0.00
2022-08-29T00:09:21.913Z,0.00
2022-08-29T00:10:21.883Z,0.00
2022-08-29T00:11:21.871Z,0.00
2022-08-29T00:12:21.861Z,0.00
2022-08-29T00:13:21.850Z,0.00
2022-08-29T00:14:23.609Z,0.00
2022-08-29T00:15:21.856Z,0.00
2022-08-29T00:16:21.884Z,0.00
2022-08-29T00:17:21.807Z,0.00
2022-08-29T00:18:21.796Z,0.00
2022-08-29T00:19:21.787Z,0.00
2022-08-29T00:20:21.772Z,0.00
2022-08-29T00:21:22.788Z,0.00
2022-08-29T00:22:21.753Z,0.00
2022-08-29T00:23:21.741Z,0.00
2022-08-29T00:24:21.729Z,0.00
2022-08-29T00:25:21.718Z,0.00
2022-08-29T00:26:21.708Z,0.00
2022-08-29T00:27:21.704Z,0.00
2022-08-29T00:28:21.686Z,0.00
2022-08-29T00:29:21.676Z,0.00
2022-08-29T00:30:21.664Z,0.00
2022-08-29T00:31:21.716Z,0.00
2022-08-29T00:32:21.643Z,0.00
2022-08-29T00:33:21.645Z,0.00
2022-08-29T00:34:21.621Z,0.00
2022-08-29T00:35:21.610Z,0.00
2022-08-29T00:36:22.507Z,0.00
2022-08-29T00:37:21.588Z,0.00
2022-08-29T00:38:21.578Z,0.00
2022-08-29T00:39:23.131Z,0.00
2022-08-29T00:40:21.644Z,0.00
2022-08-29T00:41:21.545Z,0.00
2022-08-29T00:42:21.536Z,0.00
2022-08-29T00:43:21.523Z,0.00
2022-08-29T00:44:21.512Z,0.00
2022-08-29T00:45:21.521Z,0.00
2022-08-29T00:46:21.587Z,0.00
2022-08-29T00:47:21.480Z,0.00
2022-08-29T00:48:21.468Z,0.00
2022-08-29T00:49:21.460Z,0.00
2022-08-29T00:50:21.450Z,0.00
2022-08-29T00:51:21.465Z,0.00
2022-08-29T00:52:21.425Z,0.00
2022-08-29T00:53:21.415Z,0.00
2022-08-29T00:54:21.406Z,0.00
2022-08-29T00:55:21.394Z,0.00
2022-08-29T00:56:21.383Z,0.00
2022-08-29T00:57:21.376Z,0.00
2022-08-29T00:58:21.362Z,0.00
2022-08-29T00:59:21.349Z,0.00
2022-08-29T01:00:21.341Z,0.00
2022-08-29T01:01:21.407Z,0.00
2022-08-29T01:02:21.381Z,0.00
2022-08-29T01:03:21.311Z,0.00
2022-08-29T01:04:23.764Z,0.00
2022-08-29T01:05:21.283Z,0.00
2022-08-29T01:06:21.272Z,0.00
2022-08-29T01:07:21.263Z,0.00
2022-08-29T01:08:21.251Z,0.00
2022-08-29T01:09:21.246Z,0.00
2022-08-29T01:10:21.229Z,0.00
2022-08-29T01:11:21.218Z,0.00
2022-08-29T01:12:21.208Z,0.00
2022-08-29T01:13:21.197Z,0.00
2022-08-29T01:14:21.188Z,0.00
2022-08-29T01:15:21.191Z,0.00
2022-08-29T01:16:21.206Z,0.00
2022-08-29T01:17:21.152Z,0.00
2022-08-29T01:18:21.143Z,0.00
2022-08-29T01:19:21.131Z,0.00
2022-08-29T01:20:21.120Z,0.00
2022-08-29T01:21:21.131Z,0.00
2022-08-29T01:22:21.098Z,0.00
2022-08-29T01:23:21.092Z,0.00
2022-08-29T01:24:21.078Z,0.00
2022-08-29T01:25:21.066Z,0.00
2022-08-29T01:26:21.056Z,0.00
2022-08-29T01:27:21.096Z,0.00
2022-08-29T01:28:21.033Z,0.00
2022-08-29T01:29:21.023Z,0.00
2022-08-29T01:30:21.012Z,0.00
2022-08-29T01:31:46.849Z,0.00
2022-08-29T01:32:22.040Z,0.00
2022-08-29T01:33:20.978Z,0.00
2022-08-29T01:34:20.972Z,0.00
2022-08-29T01:35:20.956Z,0.00
2022-08-29T01:36:20.947Z,0.00
2022-08-29T01:37:20.936Z,0.00
2022-08-29T01:38:20.937Z,0.00
2022-08-29T01:39:20.915Z,0.00
2022-08-29T01:40:21.029Z,0.00
2022-08-29T01:41:20.895Z,0.00
2022-08-29T01:42:20.882Z,0.00
2022-08-29T01:43:20.870Z,0.00
2022-08-29T01:44:20.866Z,0.00
2022-08-29T01:45:20.911Z,0.00
2022-08-29T01:46:20.836Z,0.00
2022-08-29T01:47:20.826Z,0.00
2022-08-29T01:48:20.816Z,0.00
2022-08-29T01:49:20.804Z,0.00
2022-08-29T01:50:20.816Z,0.00
2022-08-29T01:51:20.783Z,0.00
2022-08-29T01:52:20.771Z,0.00
2022-08-29T01:53:20.762Z,0.00
2022-08-29T01:54:20.752Z,0.00
2022-08-29T01:55:20.739Z,0.00
2022-08-29T01:56:20.756Z,0.00
2022-08-29T01:57:20.720Z,0.00
2022-08-29T01:58:20.707Z,0.00
2022-08-29T01:59:20.696Z,0.00
2022-08-29T02:00:20.686Z,0.00
2022-08-29T02:01:21.934Z,0.00
2022-08-29T02:02:20.812Z,0.00
2022-08-29T02:03:20.652Z,0.00
2022-08-29T02:04:20.642Z,0.00
2022-08-29T02:05:20.631Z,0.00
2022-08-29T02:06:20.619Z,0.00
2022-08-29T02:07:20.611Z,0.00
2022-08-29T02:08:20.604Z,0.00
2022-08-29T02:09:20.587Z,0.00
2022-08-29T02:10:20.576Z,0.00
2022-08-29T02:11:20.565Z,0.00
2022-08-29T02:12:20.572Z,0.00
2022-08-29T02:13:20.543Z,0.00
2022-08-29T02:14:20.537Z,0.00
2022-08-29T02:15:20.521Z,0.00
2022-08-29T02:16:20.535Z,0.00
2022-08-29T02:17:20.499Z,0.00
2022-08-29T02:18:20.489Z,0.00
2022-08-29T02:19:20.478Z,0.00
2022-08-29T02:20:20.473Z,0.00
2022-08-29T02:21:20.504Z,0.00
2022-08-29T02:22:20.444Z,0.00
2022-08-29T02:23:30.482Z,0.00
2022-08-29T02:24:25.859Z,0.00
2022-08-29T02:25:20.412Z,0.00
2022-08-29T02:26:20.416Z,0.00
2022-08-29T02:27:20.391Z,0.00
2022-08-29T02:28:20.381Z,0.00
2022-08-29T02:29:20.370Z,0.00
2022-08-29T02:30:20.359Z,0.00
2022-08-29T02:31:20.460Z,0.00
2022-08-29T02:32:20.856Z,0.00
2022-08-29T02:33:20.324Z,0.00
2022-08-29T02:34:20.313Z,0.00
2022-08-29T02:35:20.304Z,0.00
2022-08-29T02:36:20.293Z,0.00
2022-08-29T02:37:20.281Z,0.00
2022-08-29T02:38:20.276Z,0.00
2022-08-29T02:39:20.261Z,0.00
2022-08-29T02:40:20.370Z,0.00
2022-08-29T02:41:20.237Z,0.00
2022-08-29T02:42:20.227Z,0.00
2022-08-29T02:43:20.217Z,0.00
2022-08-29T02:44:20.213Z,0.00
2022-08-29T02:45:20.194Z,0.00
2022-08-29T02:46:20.247Z,0.00
2022-08-29T02:47:20.174Z,0.00
2022-08-29T02:48:20.161Z,0.00
2022-08-29T02:49:20.150Z,0.00
2022-08-29T02:50:20.146Z,0.00
2022-08-29T02:51:20.129Z,0.00
2022-08-29T02:52:20.118Z,0.00
2022-08-29T02:53:20.107Z,0.00
2022-08-29T02:54:20.098Z,0.00
2022-08-29T02:55:20.085Z,0.00
2022-08-29T02:56:20.081Z,0.00
2022-08-29T02:57:20.064Z,0.00
2022-08-29T02:58:20.052Z,0.00
2022-08-29T02:59:20.042Z,0.00
2022-08-29T03:00:20.031Z,0.00
2022-08-29T03:01:20.085Z,0.00
2022-08-29T03:02:20.084Z,0.00
2022-08-29T03:03:20.002Z,0.00
2022-08-29T03:04:19.987Z,0.00
2022-08-29T03:05:19.975Z,0.00
2022-08-29T03:06:19.968Z,0.00
2022-08-29T03:07:19.955Z,0.00
2022-08-29T03:08:19.975Z,0.00
2022-08-29T03:09:19.933Z,0.00
2022-08-29T03:10:19.925Z,0.00
2022-08-29T03:11:19.911Z,0.00
2022-08-29T03:12:19.901Z,0.00
2022-08-29T03:13:19.890Z,0.00
2022-08-29T03:14:19.885Z,0.00
2022-08-29T03:15:19.868Z,0.00
2022-08-29T03:16:19.954Z,0.00
2022-08-29T03:17:19.846Z,0.00
2022-08-29T03:18:19.838Z,0.00
2022-08-29T03:19:19.824Z,0.00
2022-08-29T03:20:19.820Z,0.00
2022-08-29T03:21:19.803Z,0.00
2022-08-29T03:22:19.791Z,0.00
2022-08-29T03:23:19.780Z,0.00
2022-08-29T03:24:26.289Z,0.00
2022-08-29T03:25:20.764Z,0.00
2022-08-29T03:26:19.749Z,0.00
2022-08-29T03:27:19.740Z,0.00
2022-08-29T03:28:19.727Z,0.00
2022-08-29T03:29:19.715Z,0.00
2022-08-29T03:30:19.704Z,0.00
2022-08-29T03:31:19.783Z,0.00
2022-08-29T03:32:19.682Z,0.00
2022-08-29T03:33:19.672Z,0.00
2022-08-29T03:34:19.659Z,0.00
2022-08-29T03:35:19.662Z,0.00
2022-08-29T03:36:19.638Z,0.00
2022-08-29T03:37:19.658Z,0.00
2022-08-29T03:38:19.618Z,0.00
2022-08-29T03:39:19.606Z,0.00
2022-08-29T03:40:19.669Z,0.00
2022-08-29T03:41:19.585Z,0.00
2022-08-29T03:42:19.577Z,0.00
2022-08-29T03:43:19.591Z,0.00
2022-08-29T03:44:19.551Z,0.00
2022-08-29T03:45:19.545Z,0.00
2022-08-29T03:46:19.604Z,0.00
2022-08-29T03:47:19.520Z,0.00
2022-08-29T03:48:19.510Z,0.00
2022-08-29T03:49:19.507Z,0.00
2022-08-29T03:50:19.508Z,0.00
2022-08-29T03:51:19.477Z,0.00
2022-08-29T03:52:19.465Z,0.00
2022-08-29T03:53:19.453Z,0.00
2022-08-29T03:54:19.446Z,0.00
2022-08-29T03:55:19.441Z,0.00
2022-08-29T03:56:19.421Z,0.00
2022-08-29T03:57:19.412Z,0.00
2022-08-29T03:58:19.400Z,0.00
2022-08-29T03:59:19.390Z,0.00
2022-08-29T04:00:19.377Z,0.00
2022-08-29T04:01:19.456Z,0.00
2022-08-29T04:02:19.358Z,0.00
2022-08-29T04:03:19.390Z,0.00
2022-08-29T04:04:19.334Z,0.00
2022-08-29T04:05:19.323Z,0.00
2022-08-29T04:06:19.313Z,0.00
2022-08-29T04:07:19.322Z,0.00
2022-08-29T04:08:19.290Z,0.00
2022-08-29T04:09:19.279Z,0.00
2022-08-29T04:10:19.269Z,0.00
2022-08-29T04:11:19.258Z,0.00
2022-08-29T04:12:19.248Z,0.00
2022-08-29T04:13:19.258Z,0.00
2022-08-29T04:14:19.226Z,0.00
2022-08-29T04:15:19.214Z,0.00
2022-08-29T04:16:19.297Z,0.00
2022-08-29T04:17:19.195Z,0.00
2022-08-29T04:18:21.377Z,0.00
2022-08-29T04:19:19.199Z,0.00
2022-08-29T04:20:24.131Z,0.00
2022-08-29T04:21:20.148Z,0.00
2022-08-29T04:22:19.137Z,0.00
2022-08-29T04:23:19.128Z,0.00
2022-08-29T04:24:19.116Z,0.00
2022-08-29T04:25:19.121Z,0.00
2022-08-29T04:26:36.016Z,0.00
2022-08-29T04:27:20.082Z,0.00
2022-08-29T04:28:19.071Z,0.00
2022-08-29T04:29:19.061Z,0.00
2022-08-29T04:30:19.052Z,0.00
2022-08-29T04:31:19.060Z,0.00
2022-08-29T04:32:19.030Z,0.00
2022-08-29T04:33:22.550Z,0.00
2022-08-29T04:34:19.007Z,0.00
2022-08-29T04:35:18.996Z,0.00
2022-08-29T04:36:18.985Z,0.00
2022-08-29T04:37:18.994Z,0.00
2022-08-29T04:38:18.963Z,0.00
2022-08-29T04:39:18.952Z,0.00
2022-08-29T04:40:19.023Z,0.00
2022-08-29T04:41:18.931Z,0.00
2022-08-29T04:42:20.363Z,0.00
2022-08-29T04:43:18.931Z,5.62
2022-08-29T04:44:18.899Z,5.62
2022-08-29T04:45:18.886Z,5.62
2022-08-29T04:46:23.774Z,5.62
2022-08-29T04:47:19.868Z,5.62
2022-08-29T04:48:19.039Z,5.62
2022-08-29T04:49:18.854Z,5.62
2022-08-29T04:50:18.835Z,5.62
2022-08-29T04:51:18.822Z,5.62
2022-08-29T04:52:18.811Z,5.62
2022-08-29T04:53:18.799Z,5.62
2022-08-29T04:54:18.788Z,5.62
2022-08-29T04:55:21.685Z,5.62
2022-08-29T04:56:19.766Z,5.62
2022-08-29T04:57:18.766Z,5.62
2022-08-29T04:58:18.746Z,5.62
2022-08-29T04:59:18.735Z,5.62
2022-08-29T05:00:18.725Z,5.62
2022-08-29T05:01:18.794Z,5.62
2022-08-29T05:02:18.769Z,5.62
2022-08-29T05:03:18.690Z,5.62
2022-08-29T05:04:18.681Z,5.62
2022-08-29T05:05:18.671Z,5.62
2022-08-29T05:06:18.658Z,5.62
2022-08-29T05:07:18.653Z,5.62
2022-08-29T05:08:18.637Z,5.62
2022-08-29T05:09:18.626Z,5.62
2022-08-29T05:10:18.614Z,5.62
2022-08-29T05:11:23.001Z,5.62
2022-08-29T05:12:18.594Z,5.62
2022-08-29T05:13:18.602Z,5.62
2022-08-29T05:14:18.571Z,5.62
2022-08-29T05:15:18.571Z,5.62
2022-08-29T05:16:18.641Z,5.62
2022-08-29T05:17:18.540Z,5.62
2022-08-29T05:18:18.527Z,5.62
2022-08-29T05:19:18.549Z,5.62
2022-08-29T05:20:18.507Z,5.62
2022-08-29T05:21:18.499Z,11.25
2022-08-29T05:22:18.504Z,11.25
2022-08-29T05:23:18.480Z,11.25
2022-08-29T05:24:18.465Z,11.25
2022-08-29T05:25:18.747Z,11.25
2022-08-29T05:26:18.443Z,11.25
2022-08-29T05:27:18.429Z,11.25
2022-08-29T05:28:18.417Z,11.25
2022-08-29T05:29:18.407Z,11.25
2022-08-29T05:30:19.845Z,11.25
2022-08-29T05:31:19.417Z,11.25
2022-08-29T05:32:18.378Z,11.25
2022-08-29T05:33:18.366Z,5.62
2022-08-29T05:34:34.829Z,11.25
2022-08-29T05:35:19.346Z,5.62
2022-08-29T05:36:18.331Z,5.62
2022-08-29T05:37:18.327Z,5.62
2022-08-29T05:38:18.415Z,11.25
2022-08-29T05:39:18.298Z,11.25
2022-08-29T05:40:18.315Z,5.62
2022-08-29T05:41:18.278Z,11.25
2022-08-29T05:42:18.266Z,5.62
2022-08-29T05:43:18.276Z,5.62
2022-08-29T05:44:18.246Z,5.62
2022-08-29T05:45:18.232Z,5.62
2022-08-29T05:46:20.091Z,5.62
2022-08-29T05:47:18.223Z,5.62
2022-08-29T05:48:18.202Z,5.62
2022-08-29T05:49:18.211Z,5.62
2022-08-29T05:50:18.178Z,5.62
2022-08-29T05:51:18.168Z,5.62
2022-08-29T05:52:18.158Z,11.25
2022-08-29T05:53:18.146Z,11.25
2022-08-29T05:54:18.134Z,11.25
2022-08-29T05:55:18.141Z,11.25
2022-08-29T05:56:18.115Z,11.25
2022-08-29T05:57:19.284Z,11.25
2022-08-29T05:58:18.092Z,11.25
2022-08-29T05:59:18.083Z,11.25
2022-08-29T06:00:18.086Z,11.25
2022-08-29T06:01:18.064Z,11.25
2022-08-29T06:02:18.271Z,11.25
2022-08-29T06:03:18.169Z,11.25
2022-08-29T06:04:18.026Z,11.25
2022-08-29T06:05:18.015Z,11.25
2022-08-29T06:06:18.004Z,16.88
2022-08-29T06:07:18.002Z,11.25
2022-08-29T06:08:17.982Z,11.25
2022-08-29T06:09:17.980Z,16.88
2022-08-29T06:10:17.962Z,16.88
2022-08-29T06:11:17.950Z,16.88
2022-08-29T06:12:17.942Z,16.88
2022-08-29T06:13:17.938Z,16.88
2022-08-29T06:14:17.918Z,16.88
2022-08-29T06:15:17.907Z,16.88
2022-08-29T06:16:17.971Z,16.88
2022-08-29T06:17:17.886Z,16.88
2022-08-29T06:18:17.873Z,16.88
2022-08-29T06:19:18.882Z,16.88
2022-08-29T06:20:17.863Z,16.88
2022-08-29T06:21:17.840Z,16.88
2022-08-29T06:22:17.843Z,16.88
2022-08-29T06:23:17.819Z,16.88
2022-08-29T06:24:18.807Z,16.88
2022-08-29T06:25:37.867Z,16.88
2022-08-29T06:26:18.785Z,22.50
2022-08-29T06:27:17.777Z,22.50
2022-08-29T06:28:17.765Z,16.88
2022-08-29T06:29:18.755Z,16.88
2022-08-29T06:30:17.743Z,16.88
2022-08-29T06:31:17.839Z,16.88
2022-08-29T06:32:17.727Z,22.50
2022-08-29T06:33:17.713Z,22.50
2022-08-29T06:34:17.701Z,22.50
2022-08-29T06:35:17.689Z,22.50
2022-08-29T06:36:17.677Z,22.50
2022-08-29T06:37:17.698Z,22.50
2022-08-29T06:38:17.915Z,22.50
2022-08-29T06:39:17.645Z,22.50
2022-08-29T06:40:17.658Z,22.50
2022-08-29T06:41:17.622Z,22.50
2022-08-29T06:42:17.612Z,22.50
2022-08-29T06:43:17.607Z,28.12
2022-08-29T06:44:17.591Z,22.50
2022-08-29T06:45:17.579Z,22.50
2022-08-29T06:46:17.602Z,22.50
2022-08-29T06:47:17.557Z,22.50
2022-08-29T06:48:17.547Z,22.50
2022-08-29T06:49:17.560Z,22.50
2022-08-29T06:50:17.530Z,22.50
2022-08-29T06:51:17.518Z,22.50
2022-08-29T06:52:17.506Z,16.88
2022-08-29T06:53:27.381Z,16.88
2022-08-29T06:54:18.486Z,16.88
2022-08-29T06:55:17.470Z,16.88
2022-08-29T06:56:18.507Z,16.88
2022-08-29T06:57:17.450Z,22.50
2022-08-29T06:58:17.439Z,16.88
2022-08-29T06:59:17.429Z,16.88
2022-08-29T07:00:21.658Z,16.88
2022-08-29T07:01:18.482Z,16.88
2022-08-29T07:02:17.473Z,16.88
2022-08-29T07:03:17.387Z,16.88
2022-08-29T07:04:20.634Z,16.88
2022-08-29T07:05:17.365Z,22.50
2022-08-29T07:06:17.357Z,22.50
2022-08-29T07:07:17.340Z,16.88
2022-08-29T07:08:17.328Z,22.50
2022-08-29T07:09:17.318Z,22.50
2022-08-29T07:10:22.100Z,16.88
2022-08-29T07:11:18.325Z,16.88
2022-08-29T07:12:17.285Z,22.50
2022-08-29T07:13:17.278Z,22.50
2022-08-29T07:14:17.264Z,22.50
2022-08-29T07:15:17.255Z,22.50
2022-08-29T07:16:17.265Z,16.88
2022-08-29T07:17:25.590Z,22.50
2022-08-29T07:18:18.221Z,22.50
2022-08-29T07:19:17.209Z,22.50
2022-08-29T07:20:17.201Z,16.88
2022-08-29T07:21:20.676Z,16.88
2022-08-29T07:22:17.177Z,22.50
2022-08-29T07:23:17.379Z,28.12
2022-08-29T07:24:18.593Z,33.75
2022-08-29T07:25:17.150Z,33.75
2022-08-29T07:26:17.134Z,33.75
2022-08-29T07:27:17.121Z,22.50
2022-08-29T07:28:17.343Z,22.50
2022-08-29T07:29:17.107Z,22.50
2022-08-29T07:30:17.090Z,28.12
2022-08-29T07:31:17.145Z,28.12
2022-08-29T07:32:17.067Z,28.12
2022-08-29T07:33:17.243Z,28.12
2022-08-29T07:34:20.648Z,28.12
2022-08-29T07:35:19.824Z,28.12
2022-08-29T07:36:18.023Z,28.12
2022-08-29T07:37:17.013Z,28.12
2022-08-29T07:38:17.031Z,33.75
2022-08-29T07:39:16.992Z,33.75
2022-08-29T07:40:17.070Z,33.75
2022-08-29T07:41:16.976Z,28.12
2022-08-29T07:42:16.958Z,33.75
2022-08-29T07:43:20.420Z,33.75
2022-08-29T07:44:16.940Z,33.75
2022-08-29T07:45:16.928Z,28.12
2022-08-29T07:46:16.983Z,22.50
2022-08-29T07:47:16.912Z,28.12
2022-08-29T07:48:21.106Z,28.12
2022-08-29T07:49:17.881Z,28.12
2022-08-29T07:50:16.873Z,28.12
2022-08-29T07:51:16.860Z,28.12
2022-08-29T07:52:16.851Z,22.50
2022-08-29T07:53:17.225Z,22.50
2022-08-29T07:54:17.098Z,22.50
2022-08-29T07:55:16.817Z,22.50
2022-08-29T07:56:16.806Z,28.12
2022-08-29T07:57:16.797Z,28.12
2022-08-29T07:58:16.915Z,22.50
2022-08-29T07:59:16.781Z,22.50
2022-08-29T08:00:16.763Z,28.12
2022-08-29T08:01:20.854Z,28.12
2022-08-29T08:02:16.837Z,28.12
2022-08-29T08:03:16.938Z,28.12
2022-08-29T08:04:16.719Z,28.12
2022-08-29T08:05:16.722Z,28.12
2022-08-29T08:06:16.698Z,28.12
2022-08-29T08:07:16.686Z,28.12
2022-08-29T08:08:16.767Z,33.75
2022-08-29T08:09:16.667Z,28.12
2022-08-29T08:10:16.653Z,28.12
2022-08-29T08:11:16.651Z,28.12
2022-08-29T08:12:16.631Z,28.12
2022-08-29T08:13:16.879Z,28.12
2022-08-29T08:14:16.609Z,28.12
2022-08-29T08:15:16.599Z,33.75
2022-08-29T08:16:16.725Z,28.12
2022-08-29T08:17:16.583Z,28.12
2022-08-29T08:18:16.765Z,28.12
2022-08-29T08:19:16.555Z,22.50
2022-08-29T08:20:16.544Z,22.50
2022-08-29T08:21:16.536Z,28.12
2022-08-29T08:22:16.525Z,28.12
2022-08-29T08:23:16.832Z,28.12
2022-08-29T08:24:19.574Z,28.12
2022-08-29T08:25:16.490Z,28.12
2022-08-29T08:26:16.485Z,28.12
2022-08-29T08:27:16.470Z,28.12
2022-08-29T08:28:16.701Z,33.75
2022-08-29T08:29:16.453Z,33.75
2022-08-29T08:30:16.437Z,28.12
2022-08-29T08:31:16.466Z,28.12
2022-08-29T08:32:16.414Z,33.75
2022-08-29T08:33:16.590Z,33.75
2022-08-29T08:34:16.392Z,39.38
2022-08-29T08:35:16.412Z,50.62
2022-08-29T08:36:16.370Z,56.25
2022-08-29T08:37:24.279Z,56.25
2022-08-29T08:38:17.347Z,50.62
2022-08-29T08:39:16.340Z,45.00
2022-08-29T08:40:16.388Z,39.38
2022-08-29T08:41:16.323Z,50.62
2022-08-29T08:42:16.309Z,45.00
2022-08-29T08:43:18.431Z,45.00
2022-08-29T08:44:17.283Z,39.38
2022-08-29T08:45:16.272Z,39.38
2022-08-29T08:46:16.304Z,33.75
2022-08-29T08:47:16.280Z,28.12
2022-08-29T08:48:16.241Z,28.12
2022-08-29T08:49:16.230Z,33.75
2022-08-29T08:50:16.220Z,28.12
2022-08-29T08:51:16.208Z,28.12
2022-08-29T08:52:16.197Z,28.12
2022-08-29T08:53:16.431Z,28.12
2022-08-29T08:54:16.176Z,28.12
2022-08-29T08:55:16.163Z,28.12
2022-08-29T08:56:16.152Z,22.50
2022-08-29T08:57:16.141Z,22.50
2022-08-29T08:58:16.306Z,22.50
2022-08-29T08:59:16.137Z,22.50
2022-08-29T09:00:16.109Z,22.50
2022-08-29T09:01:16.176Z,33.75
2022-08-29T09:02:16.136Z,33.75
2022-08-29T09:03:16.232Z,22.50
2022-08-29T09:04:16.066Z,22.50
2022-08-29T09:05:16.062Z,22.50
2022-08-29T09:06:16.045Z,22.50
2022-08-29T09:07:16.033Z,22.50
2022-08-29T09:08:16.023Z,22.50
2022-08-29T09:09:16.012Z,28.12
2022-08-29T09:10:15.999Z,33.75
2022-08-29T09:11:15.995Z,39.38
2022-08-29T09:12:15.978Z,45.00
2022-08-29T09:13:16.179Z,50.62
2022-08-29T09:14:15.960Z,50.62
2022-08-29T09:15:15.945Z,45.00
2022-08-29T09:16:15.962Z,45.00
2022-08-29T09:17:15.930Z,39.38
2022-08-29T09:18:18.058Z,39.38
2022-08-29T09:19:17.901Z,45.00
2022-08-29T09:20:15.891Z,50.62
2022-08-29T09:21:39.568Z,50.62
2022-08-29T09:22:16.874Z,50.62
2022-08-29T09:23:16.118Z,50.62
2022-08-29T09:24:15.849Z,45.00
2022-08-29T09:25:15.841Z,45.00
2022-08-29T09:26:15.826Z,45.00
2022-08-29T09:27:15.815Z,39.38
2022-08-29T09:28:15.810Z,39.38
2022-08-29T09:29:15.794Z,39.38
2022-08-29T09:30:15.790Z,39.38
2022-08-29T09:31:15.811Z,45.00
2022-08-29T09:32:20.318Z,45.00
2022-08-29T09:33:17.060Z,50.62
2022-08-29T09:34:15.739Z,50.62
2022-08-29T09:35:15.727Z,39.38
2022-08-29T09:36:15.717Z,33.75
2022-08-29T09:37:15.706Z,39.38
2022-08-29T09:38:15.695Z,50.62
2022-08-29T09:39:15.691Z,45.00
2022-08-29T09:40:15.838Z,39.38
2022-08-29T09:41:15.662Z,45.00
2022-08-29T09:42:15.652Z,67.50
2022-08-29T09:43:15.793Z,73.12
2022-08-29T09:44:15.630Z,67.50
2022-08-29T09:45:15.624Z,61.88
2022-08-29T09:46:15.646Z,61.88
2022-08-29T09:47:15.596Z,56.25
2022-08-29T09:48:15.588Z,67.50
2022-08-29T09:49:15.576Z,67.50
2022-08-29T09:50:15.565Z,56.25
2022-08-29T09:51:15.583Z,56.25
2022-08-29T09:52:15.555Z,56.25
2022-08-29T09:53:24.913Z,61.88
2022-08-29T09:54:16.523Z,67.50
2022-08-29T09:55:15.510Z,73.12
2022-08-29T09:56:15.501Z,78.75
2022-08-29T09:57:15.510Z,67.50
2022-08-29T09:58:15.476Z,56.25
2022-08-29T09:59:15.467Z,56.25
2022-08-29T10:00:15.455Z,67.50
2022-08-29T10:01:15.562Z,78.75
2022-08-29T10:02:15.527Z,90.00
2022-08-29T10:03:15.638Z,90.00
2022-08-29T10:04:15.412Z,67.50
2022-08-29T10:05:15.402Z,61.88
2022-08-29T10:06:15.389Z,56.25
2022-08-29T10:07:15.380Z,56.25
2022-08-29T10:08:15.370Z,56.25
2022-08-29T10:09:15.373Z,50.62
2022-08-29T10:10:15.346Z,45.00
2022-08-29T10:11:15.335Z,45.00
2022-08-29T10:12:15.323Z,39.38
2022-08-29T10:13:15.567Z,39.38
2022-08-29T10:14:15.303Z,33.75
2022-08-29T10:15:28.220Z,33.75
2022-08-29T10:16:16.318Z,33.75
2022-08-29T10:17:15.270Z,33.75
2022-08-29T10:18:15.259Z,33.75
2022-08-29T10:19:15.248Z,39.38
2022-08-29T10:20:15.248Z,39.38
2022-08-29T10:21:15.242Z,39.38
2022-08-29T10:22:15.249Z,39.38
2022-08-29T10:23:15.430Z,50.62
2022-08-29T10:24:17.351Z,56.25
2022-08-29T10:25:15.182Z,50.62
2022-08-29T10:26:15.176Z,45.00
2022-08-29T10:27:15.183Z,73.12
2022-08-29T10:28:15.151Z,84.38
2022-08-29T10:29:15.140Z,78.75
2022-08-29T10:30:15.162Z,61.88
2022-08-29T10:31:15.161Z,56.25
2022-08-29T10:32:15.108Z,67.50
2022-08-29T10:33:15.255Z,95.62
2022-08-29T10:34:15.085Z,67.50
2022-08-29T10:35:15.075Z,50.62
2022-08-29T10:36:15.063Z,56.25
2022-08-29T10:37:15.055Z,73.12
2022-08-29T10:38:15.042Z,78.75
2022-08-29T10:39:15.036Z,78.75
2022-08-29T10:40:17.638Z,73.12
2022-08-29T10:41:15.008Z,73.12
2022-08-29T10:42:14.999Z,73.12
2022-08-29T10:43:15.066Z,67.50
2022-08-29T10:44:14.978Z,61.88
2022-08-29T10:45:14.970Z,56.25
2022-08-29T10:46:15.008Z,56.25
2022-08-29T10:47:14.943Z,50.62
2022-08-29T10:48:15.014Z,56.25
2022-08-29T10:49:14.922Z,56.25
2022-08-29T10:50:27.595Z,56.25
2022-08-29T10:51:17.401Z,61.88
2022-08-29T10:52:14.889Z,67.50
2022-08-29T10:53:14.881Z,61.88
2022-08-29T10:54:14.867Z,56.25
2022-08-29T10:55:14.862Z,56.25
2022-08-29T10:56:14.846Z,50.62
2022-08-29T10:57:14.840Z,45.00
2022-08-29T10:58:14.943Z,45.00
2022-08-29T10:59:14.814Z,50.62
2022-08-29T11:00:14.871Z,56.25
2022-08-29T11:01:14.903Z,50.62
2022-08-29T11:02:14.780Z,50.62
2022-08-29T11:03:15.019Z,67.50
2022-08-29T11:04:14.815Z,78.75
2022-08-29T11:05:14.747Z,73.12
2022-08-29T11:06:14.738Z,78.75
2022-08-29T11:07:14.726Z,78.75
2022-08-29T11:08:16.444Z,84.38
2022-08-29T11:09:14.710Z,73.12
2022-08-29T11:10:14.780Z,67.50
2022-08-29T11:11:14.683Z,61.88
2022-08-29T11:12:17.783Z,67.50
2022-08-29T11:13:14.660Z,61.88
2022-08-29T11:14:14.650Z,61.88
2022-08-29T11:15:14.644Z,67.50
2022-08-29T11:16:14.753Z,73.12
2022-08-29T11:17:14.618Z,106.88
2022-08-29T11:18:15.478Z,78.75
2022-08-29T11:19:20.126Z,56.25
2022-08-29T11:20:15.589Z,45.00
2022-08-29T11:21:14.574Z,61.88
2022-08-29T11:22:14.562Z,90.00
2022-08-29T11:23:14.553Z,45.00
2022-08-29T11:24:14.542Z,39.38
2022-08-29T11:25:14.529Z,45.00
2022-08-29T11:26:14.526Z,61.88
2022-08-29T11:27:14.511Z,50.62
2022-08-29T11:28:14.704Z,56.25
2022-08-29T11:29:14.486Z,56.25
2022-08-29T11:30:14.475Z,56.25
2022-08-29T11:31:14.473Z,61.88
2022-08-29T11:32:14.458Z,67.50
2022-08-29T11:33:14.710Z,67.50
2022-08-29T11:34:14.432Z,61.88
2022-08-29T11:35:14.420Z,67.50
2022-08-29T11:36:14.412Z,146.25
2022-08-29T11:37:14.401Z,106.88
2022-08-29T11:38:14.393Z,101.25
2022-08-29T11:39:14.378Z,253.12
2022-08-29T11:40:14.984Z,286.88
2022-08-29T11:41:30.237Z,275.62
2022-08-29T11:42:15.472Z,326.25
2022-08-29T11:43:14.575Z,354.38
2022-08-29T11:44:14.330Z,270.00
2022-08-29T11:45:14.312Z,185.62
2022-08-29T11:46:14.300Z,180.00
2022-08-29T11:47:14.338Z,196.88
2022-08-29T11:48:14.278Z,253.12
2022-08-29T11:49:14.268Z,258.75
2022-08-29T11:50:14.263Z,174.38
2022-08-29T11:51:14.249Z,630.00
2022-08-29T11:52:15.830Z,495.00
2022-08-29T11:53:16.879Z,388.12
2022-08-29T11:54:14.215Z,635.62
2022-08-29T11:55:16.100Z,405.00
2022-08-29T11:56:14.234Z,911.25
2022-08-29T11:57:14.186Z,444.38
2022-08-29T11:58:14.173Z,596.25
2022-08-29T11:59:14.161Z,1288.12
2022-08-29T12:00:14.662Z,1170.00
2022-08-29T12:01:14.141Z,1411.88
2022-08-29T12:02:14.168Z,1681.88
2022-08-29T12:03:25.223Z,1681.88
2022-08-29T12:04:15.157Z,1721.25
2022-08-29T12:05:14.098Z,1665.00
2022-08-29T12:06:14.086Z,1614.38
2022-08-29T12:07:14.075Z,624.38
2022-08-29T12:08:35.725Z,393.75
2022-08-29T12:09:15.055Z,1935.00
2022-08-29T12:10:14.044Z,967.50
2022-08-29T12:11:14.034Z,455.62
2022-08-29T12:12:14.026Z,393.75
2022-08-29T12:13:14.230Z,714.38
2022-08-29T12:14:14.017Z,765.00
2022-08-29T12:15:13.991Z,601.88
2022-08-29T12:16:14.037Z,1822.50
2022-08-29T12:17:13.969Z,1771.88
2022-08-29T12:18:14.105Z,1805.62
2022-08-29T12:19:13.948Z,2103.75
2022-08-29T12:20:13.944Z,1051.88
2022-08-29T12:21:13.928Z,270.00
2022-08-29T12:22:21.941Z,219.38
2022-08-29T12:23:15.031Z,168.75
2022-08-29T12:24:13.897Z,140.62
2022-08-29T12:25:13.887Z,168.75
2022-08-29T12:26:22.574Z,219.38
2022-08-29T12:27:15.812Z,286.88
2022-08-29T12:28:14.854Z,303.75
2022-08-29T12:29:13.843Z,151.88
2022-08-29T12:30:13.836Z,163.12
2022-08-29T12:31:13.934Z,140.62
2022-08-29T12:32:23.470Z,157.50
2022-08-29T12:33:15.009Z,129.38
2022-08-29T12:34:13.789Z,106.88
2022-08-29T12:35:13.779Z,157.50
2022-08-29T12:36:13.770Z,652.50
2022-08-29T12:37:13.758Z,382.50
2022-08-29T12:38:13.753Z,112.50
2022-08-29T12:39:13.739Z,230.62
2022-08-29T12:40:14.761Z,129.38
2022-08-29T12:41:13.716Z,118.12
2022-08-29T12:42:13.704Z,129.38
2022-08-29T12:43:13.695Z,106.88
2022-08-29T12:44:13.689Z,95.62
2022-08-29T12:45:13.679Z,225.00
2022-08-29T12:46:13.700Z,95.62
2022-08-29T12:47:13.702Z,95.62
2022-08-29T12:48:13.655Z,157.50
2022-08-29T12:49:13.636Z,112.50
2022-08-29T12:50:13.635Z,95.62
2022-08-29T12:51:13.608Z,90.00
2022-08-29T12:52:13.608Z,84.38
2022-08-29T12:53:13.586Z,78.75
2022-08-29T12:54:13.576Z,73.12
2022-08-29T12:55:13.565Z,67.50
2022-08-29T12:56:13.560Z,67.50
2022-08-29T12:57:13.544Z,67.50
2022-08-29T12:58:13.638Z,78.75
2022-08-29T12:59:13.530Z,95.62
2022-08-29T13:00:13.511Z,106.88